METAR stanice u blizini

 

LYBE - Beograd / Surčin, Srbija
Ažurirano: 10/04/2020 14:30
Vedro
Vedro
 Pravac vetra S
Vetar: S 11 km/h
Temperatura: 23°C
Tačka rose: 3°C
Vlažnost: 27%
Pritisak: 1020 hPa
Pregled: Vedro
Vidljivost: greater than 10 km
2020/04/10 12:30 LYBE 101230Z 01006KT 340V040 CAVOK 23/03 Q1020 NOSIG
LYBT - Beograd / Batajnica, Srbija
Ažurirano: 10/04/2020 14:30
Vedro
Vedro
 Pravac vetra SSZ
Vetar: SSZ 26 km/h
Temperatura: 23°C
Tačka rose: 1°C
Vlažnost: 23%
Pritisak: 1020 hPa
Pregled: Vedro
Vidljivost: greater than 10 km
2020/04/10 12:30 LYBT 101230Z 34014KT CAVOK 23/01 Q1020 NOSIG
LYVR - Vršac, Srbija
Ažurirano: 10/04/2020 14:30
Vedro
Vedro
 Pravac vetra SSZ
Vetar: SSZ 22 km/h
Temperatura: 24°C
Tačka rose: 0°C
Vlažnost: 21%
Pritisak: 1019 hPa
Pregled: Vedro
Vidljivost: greater than 10 km
2020/04/10 12:30 LYVR 101230Z 33012KT 300V010 CAVOK 24/00 Q1019 NOSIG
 
LYKV - Lađevci, Srbija
Ažurirano: 10/04/2020 14:30
Vedro
Vedro
 Pravac vetra S
Vetar: S 17 km/h
Temperatura: 23°C
Tačka rose: -4°C
Vlažnost: 16%
Pritisak: 1020 hPa
Pregled: Vedro
Vidljivost: greater than 10 km
2020/04/10 12:30 LYKV 101230Z 35009KT 270V060 CAVOK 23/M04 Q1020 NOSIG
LYNI - Niš, Srbija
Ažurirano: 10/04/2020 14:30
Vedro
Vedro
 Pravac vetra SZ
Vetar: SZ 28 km/h, Maks.: 50 km/h
Temperatura: 23°C
Tačka rose: -3°C
Vlažnost: 17%
Pritisak: 1018 hPa
Pregled: Vedro
Vidljivost: greater than 10 km
2020/04/10 12:30 LYNI 101230Z 32015G27KT CAVOK 23/M03 Q1018 NOSIG
BKPR - Priština, Srbija
Ažurirano: 10/04/2020 15:00
Vedro
Vedro
 Pravac vetra SSI
Vetar: SSI 13 km/h
Temperatura: 21°C
Tačka rose: -6°C
Vlažnost: 16%
Pritisak: 1019 hPa
Pregled: Vedro
Vidljivost: greater than 10 km
2020/04/10 13:00 BKPR 101300Z 03007KT 350V080 CAVOK 21/M06 Q1019 NOSIG
 
LHPP - Pecs / Pogany, Hungary
Ažurirano: 10/04/2020 14:45
Vedro
Vedro
 Pravac vetra SSZ
Vetar: SSZ 19 km/h
Temperatura: 21°C
Tačka rose: 5°C
Vlažnost: 35%
Pritisak: 1021 hPa
Pregled: Vedro
Vidljivost: greater than 10 km
2020/04/10 12:45 LHPP 101245Z 34010KT CAVOK 21/05 Q1021
LHUD - Szeged, Hungary
Ažurirano: 04/07/2019 01:45
NOT Current
Vedro
Vedro
 Pravac vetra S
Vetar: S 7 km/h
Temperatura: 18°C
Tačka rose: 13°C
Vlažnost: 73%
Pritisak: 1019 hPa
Pregled: Vedro
Vidljivost: greater than 10 km
2019/07/03 23:45 LHUD 032345Z 35004KT CAVOK 18/13 Q1019
LRTR - Timisoara, Romania
Ažurirano: 10/04/2020 14:30
Vedro
Vedro
 Pravac vetra SSZ
Vetar: SSZ 22 km/h
Temperatura: 22°C
Tačka rose: 3°C
Vlažnost: 29%
Pritisak: 1019 hPa
Pregled: Vedro
Vidljivost: greater than 10 km
2020/04/10 12:30 LRTR 101230Z 33012KT 300V010 CAVOK 22/03 Q1019
 
LRCV - Craiova, Romania
Ažurirano: 10/04/2020 14:30
Vedro
Vedro
 Pravac vetra ZSZ
Vetar: ZSZ 19 km/h
Temperatura: 24°C
Tačka rose: -2°C
Vlažnost: 18%
Pritisak: 1015 hPa
Pregled: Vedro
Vidljivost: greater than 10 km
2020/04/10 12:30 LRCV 101230Z 29010KT 250V310 CAVOK 24/M02 Q1015
LBSF - Sofia, Bulgaria
Ažurirano: 10/04/2020 15:00
Vedro
Vedro
 Pravac vetra Z
Vetar: Z 20 km/h
Temperatura: 21°C
Tačka rose: -2°C
Vlažnost: 21%
Pritisak: 1017 hPa
Pregled: Vedro
Vidljivost: greater than 10 km
2020/04/10 13:00 LBSF 101300Z 28011KT 260V320 CAVOK 21/M02 Q1017 NOSIG
LWSK - Skoplje, Makedonija
Ažurirano: 10/04/2020 15:00
Vedro
Vedro
 Pravac vetra calm
Vetar: Tišina
Temperatura: 23°C
Tačka rose: -1°C
Vlažnost: 20%
Pritisak: 1017 hPa
Pregled: Vedro
Vidljivost: greater than 10 km
2020/04/10 13:00 LWSK 101300Z 00000KT CAVOK 23/M01 Q1017 NOSIG
 
LYPG - Podgorica, Crna Gora
Ažurirano: 10/04/2020 14:30
Vedro
Vedro
 Pravac vetra J
Vetar: J 7 km/h
Temperatura: 25°C
Tačka rose: 1°C
Vlažnost: 21%
Pritisak: 1018 hPa
Pregled: Vedro
Vidljivost: greater than 10 km
2020/04/10 12:30 LYPG 101230Z 17004KT 130V220 CAVOK 25/01 Q1018 NOSIG
LQSA - Sarajevo, Bosna i Hercegovina
Ažurirano: 10/04/2020 14:30
Vedro
Vedro
 Pravac vetra varies
Vetar: varies 6 km/h
Temperatura: 21°C
Tačka rose: -3°C
Vlažnost: 20%
Pritisak: 1021 hPa
Pregled: Vedro
Vidljivost: greater than 10 km
2020/04/10 12:30 LQSA 101230Z VRB03KT CAVOK 21/M03 Q1021 NOSIG
LDOS - Osijek, Hrvatksa
Ažurirano: 10/04/2020 15:00
Few Clouds
Few Clouds
 Pravac vetra SSZ
Vetar: SSZ 17 km/h
Temperatura: 23°C
Tačka rose: 3°C
Vlažnost: 27%
Pritisak: 1020 hPa
Oblaci: Few Clouds
Vidljivost: 10 km
Cloud details: Few Clouds 1219 m
2020/04/10 13:00 LDOS 101300Z 34009KT 310V020 9999 FEW040 23/03 Q1020